Weather History for Las Cruces, NM

Change the Weather History Date:

Monday, March 25, 2013

  Actual Average Record
Temperature  
Mean Temperature 48 °F -  
Max Temperature 60 °F 68 °F 87 °F (2012)
Min Temperature 36 °F 42 °F 33 °F (2006)
Degree Days  
Heating Degree Days 17    
Moisture  
Dew Point 2 °F    
Average Humidity 15    
Maximum Humidity 24    
Minimum Humidity 11    
Precipitation  
Precipitation 0.00 in - - ()
Sea Level Pressure  
Sea Level Pressure 30.10 in    
Wind  
Wind Speed 7 mph (ESE)    
Max Wind Speed 15 mph    
Max Gust Speed 20 mph    
Visibility 10 miles    
Events      
Averages and records for this station are not official NWS values.
T = Trace of Precipitation, MM = Missing Value Source: NWS Daily Summary

Daily Weather History Graph

Daily Weather History Graph

Search for Another Location

Airport:

Trip Planner

Search our weather history database for the weather conditions in past years. The results will help you decide how hot, cold, wet, or windy it might be!

Date:

Astronomy

Mar. 25, 2013 Rise Set
Actual Time 7:04 AM MDT 7:22 PM MDT
Civil Twilight 6:40 AM MDT 7:47 PM MDT
Nautical Twilight 6:11 AM MDT 8:16 PM MDT
Astronomical Twilight 5:42 AM MDT 8:45 PM MDT
Moon 6:00 PM MDT (3/25) 5:44 AM MDT (3/25)
Length of Visible Light 13h 07m
Length of Day
12h 18m
Waxing Gibbous, 97% of the Moon is Illuminated
Mar 25
Waxing Gibbous
Mar 27
Full
Apr 2
Last Quarter
Apr 10
New
Apr 18
First Quarter

Hourly Weather History & Observations

Time (MDT) Temp. Windchill Dew Point Humidity Pressure Visibility Wind Dir Wind Speed Gust Speed Precip Events Conditions
12:15 AM 49.3 °F - -1.1 °F 12% 29.98 in 10.0 mi NNW 11.5 mph - N/A   Clear
12:35 AM 47.1 °F - -1.5 °F 13% 29.99 in 10.0 mi NNE 5.8 mph - N/A   Clear
12:55 AM 44.1 °F 40.1 °F -2.4 °F 14% 29.99 in 10.0 mi North 6.9 mph - N/A   Clear
1:15 AM 45.3 °F 40.1 °F -2.2 °F 14% 29.99 in 10.0 mi NNE 10.4 mph - N/A   Clear
1:35 AM 49.8 °F - -2.2 °F 12% 30.00 in 10.0 mi North 9.2 mph - N/A   Clear
1:55 AM 47.7 °F - -3.3 °F 12% 30.00 in 10.0 mi NNW 10.4 mph - N/A   Clear
2:15 AM 46.4 °F 41.1 °F -3.5 °F 12% 30.00 in 10.0 mi NNW 11.5 mph - N/A   Clear
2:35 AM 44.6 °F 39.7 °F -4.0 °F 13% 30.01 in 10.0 mi NNW 9.2 mph - N/A   Clear
2:55 AM 43.3 °F 38.1 °F -4.0 °F 14% 30.01 in 10.0 mi NNW 9.2 mph - N/A   Clear
3:15 AM 42.1 °F 36.6 °F -4.0 °F 14% 30.01 in 10.0 mi NNW 9.2 mph - N/A   Clear
3:35 AM 41.9 °F 36.3 °F -3.8 °F 15% 30.02 in 10.0 mi NNW 9.2 mph - N/A   Clear
3:55 AM 42.3 °F 36.3 °F -3.5 °F 15% 30.02 in 10.0 mi NNW 10.4 mph - N/A   Clear
4:15 AM 41.2 °F 36.0 °F -3.5 °F 15% 30.03 in 10.0 mi NNW 8.1 mph - N/A   Clear
4:35 AM 41.4 °F 35.2 °F -3.3 °F 15% 30.03 in 10.0 mi NNW 10.4 mph - N/A   Clear
4:55 AM 39.7 °F 33.2 °F -3.3 °F 16% 30.04 in 10.0 mi NNW 10.4 mph - N/A   Clear
5:15 AM 39.2 °F 32.5 °F -3.5 °F 16% 30.05 in 10.0 mi NNW 10.4 mph - N/A   Clear
5:35 AM 39.2 °F 33.6 °F -3.1 °F 17% 30.06 in 10.0 mi NNW 8.1 mph - N/A   Clear
5:55 AM 39.2 °F 32.5 °F -3.1 °F 17% 30.07 in 10.0 mi NNW 10.4 mph - N/A   Clear
6:15 AM 38.3 °F 31.9 °F -2.7 °F 18% 30.07 in 10.0 mi NNW 9.2 mph - N/A   Clear
6:35 AM 36.9 °F 32.2 °F -3.1 °F 18% 30.08 in 10.0 mi North 5.8 mph - N/A   Clear
6:55 AM 36.9 °F 32.2 °F -2.7 °F 19% 30.09 in 10.0 mi North 5.8 mph - N/A   Clear
7:15 AM 36.1 °F - -3.3 °F 19% 30.11 in 10.0 mi Calm Calm - N/A   Clear
7:35 AM 36.7 °F - -2.6 °F 19% 30.12 in 10.0 mi Calm Calm - N/A   Clear
7:55 AM 39.6 °F - -2.2 °F 17% 30.13 in 10.0 mi Calm Calm - N/A   Clear
8:15 AM 40.1 °F 36.9 °F -0.9 °F 18% 30.14 in 10.0 mi ESE 4.6 mph - N/A   Clear
8:35 AM 39.9 °F - -0.4 °F 18% 30.16 in 10.0 mi Calm Calm - N/A   Clear
8:55 AM 41.9 °F - 0.5 °F 18% 30.16 in 10.0 mi Calm Calm - N/A   Clear
9:15 AM 43.0 °F 40.3 °F 0.9 °F 17% 30.17 in 10.0 mi East 4.6 mph - N/A   Clear
9:35 AM 43.7 °F 39.7 °F 3.2 °F 19% 30.17 in 10.0 mi ENE 6.9 mph - N/A   Clear
9:55 AM 44.6 °F 40.2 °F 1.6 °F 17% 30.18 in 10.0 mi ENE 8.1 mph - N/A   Clear
10:15 AM 45.0 °F 41.2 °F 1.8 °F 17% 30.18 in 10.0 mi ENE 6.9 mph - N/A   Clear
10:35 AM 44.4 °F - 2.1 °F 17% 30.18 in 10.0 mi Calm Calm - N/A   Clear
10:55 AM 47.3 °F - 2.5 °F 16% 30.18 in 10.0 mi ESE 4.6 mph - N/A   Clear
11:15 AM 47.5 °F - 2.3 °F 16% 30.18 in 10.0 mi Calm Calm - N/A   Clear
11:35 AM 49.3 °F - 2.5 °F 15% 30.18 in 10.0 mi West 4.6 mph - N/A   Clear
11:55 AM 50.4 °F - 2.7 °F 14% 30.18 in 10.0 mi West 3.5 mph - N/A   Clear
12:15 PM 51.1 °F - 2.3 °F 14% 30.17 in 10.0 mi Calm Calm - N/A   Clear
12:35 PM 53.6 °F - 4.8 °F 14% 30.16 in 10.0 mi South 6.9 mph - N/A   Clear
12:55 PM 54.1 °F - 4.5 °F 13% 30.16 in 10.0 mi ESE 4.6 mph - N/A   Clear
1:15 PM 54.7 °F - 4.8 °F 13% 30.16 in 10.0 mi South 8.1 mph - N/A   Clear
1:35 PM 56.1 °F - 5.2 °F 13% 30.15 in 10.0 mi South 9.2 mph - N/A   Clear
1:55 PM 56.8 °F - 5.0 °F 12% 30.14 in 10.0 mi SSE 6.9 mph - N/A   Clear
2:15 PM 56.8 °F - 4.5 °F 12% 30.13 in 10.0 mi ESE 6.9 mph - N/A   Clear
2:35 PM 57.7 °F - 5.2 °F 12% 30.12 in 10.0 mi SSE 8.1 mph - N/A   Clear
2:55 PM 58.6 °F - 5.0 °F 12% 30.12 in 10.0 mi SE 8.1 mph - N/A   Clear
3:15 PM 59.4 °F - 5.2 °F 12% 30.11 in 10.0 mi SE 9.2 mph - N/A   Clear
3:35 PM 59.7 °F - 5.4 °F 11% 30.10 in 10.0 mi SE 8.1 mph - N/A   Clear
3:55 PM 60.1 °F - 5.4 °F 11% 30.10 in 10.0 mi SE 4.6 mph - N/A   Clear
4:15 PM 59.7 °F - 5.4 °F 11% 30.09 in 10.0 mi South 4.6 mph - N/A   Clear
4:35 PM 59.7 °F - 5.9 °F 12% 30.09 in 10.0 mi SE 3.5 mph - N/A   Clear
4:55 PM 59.9 °F - 6.1 °F 12% 30.09 in 10.0 mi South 5.8 mph - N/A   Clear
5:15 PM 59.7 °F - 6.1 °F 12% 30.08 in 10.0 mi SSW 4.6 mph - N/A   Clear
5:35 PM 59.7 °F - 6.4 °F 12% 30.08 in 10.0 mi Calm Calm - N/A   Clear
5:55 PM 59.2 °F - 6.4 °F 12% 30.08 in 10.0 mi SSE 4.6 mph - N/A   Clear
6:15 PM 59.0 °F - 6.4 °F 12% 30.08 in 10.0 mi SE 6.9 mph - N/A   Clear
6:35 PM 58.3 °F - 6.1 °F 12% 30.09 in 10.0 mi SE 5.8 mph - N/A   Clear
6:55 PM 57.7 °F - 5.9 °F 13% 30.09 in 10.0 mi SE 5.8 mph - N/A   Clear
7:15 PM 56.3 °F - 5.7 °F 13% 30.10 in 10.0 mi SE 8.1 mph - N/A   Clear
7:35 PM 54.5 °F - 5.2 °F 14% 30.11 in 10.0 mi SE 5.8 mph - N/A   Clear
7:55 PM 52.7 °F - 5.2 °F 15% 30.11 in 10.0 mi SE 5.8 mph - N/A   Clear
8:15 PM 51.6 °F - 5.0 °F 15% 30.12 in 10.0 mi SE 5.8 mph - N/A   Clear
8:35 PM 50.5 °F - 4.8 °F 16% 30.12 in 10.0 mi SE 5.8 mph - N/A   Clear
8:55 PM 50.4 °F - 5.4 °F 16% 30.12 in 10.0 mi SE 6.9 mph - N/A   Clear
9:15 PM 50.0 °F - 5.9 °F 17% 30.13 in 10.0 mi ESE 6.9 mph - N/A   Clear
9:35 PM 48.7 °F - 5.9 °F 17% 30.13 in 10.0 mi ESE 6.9 mph - N/A   Clear
9:55 PM 48.7 °F - 6.3 °F 18% 30.15 in 10.0 mi SE 8.1 mph - N/A   Clear
10:15 PM 48.0 °F - 7.0 °F 19% 30.15 in 10.0 mi ESE 10.4 mph - N/A   Clear
10:35 PM 47.3 °F - 7.7 °F 20% 30.16 in 10.0 mi SE 10.4 mph - N/A   Clear
10:55 PM 46.9 °F - 8.2 °F 21% 30.17 in 10.0 mi ESE 11.5 mph 17.3 mph N/A   Clear
11:15 PM 45.7 °F 40.2 °F 8.4 °F 22% 30.17 in 10.0 mi SE 11.5 mph - N/A   Clear
11:35 PM 45.5 °F 38.9 °F 9.0 °F 23% 30.18 in 10.0 mi SE 15.0 mph 19.6 mph N/A   Clear
11:55 PM 44.6 °F 39.7 °F 9.1 °F 24% 30.18 in 10.0 mi SE 9.2 mph - N/A   Clear